createdAt,value
2017-12-26T00:00:43.794Z,3.40
2017-12-26T00:05:45.341Z,3.30
2017-12-26T00:10:47.681Z,3.40
2017-12-26T00:15:49.239Z,3.30
2017-12-26T00:20:50.861Z,3.40
2017-12-26T00:25:53.182Z,3.30
2017-12-26T00:30:54.845Z,3.30
2017-12-26T00:35:56.400Z,3.40
2017-12-26T00:40:58.066Z,3.30
2017-12-26T00:46:00.325Z,3.30
2017-12-26T00:51:02.009Z,3.30
2017-12-26T00:56:04.293Z,3.40
2017-12-26T01:01:06.570Z,3.50
2017-12-26T01:06:08.938Z,3.50
2017-12-26T01:11:10.482Z,3.40
2017-12-26T01:16:11.998Z,3.60
2017-12-26T01:21:14.258Z,3.70
2017-12-26T01:26:15.797Z,3.60
2017-12-26T01:31:17.345Z,3.70
2017-12-26T01:36:18.870Z,3.70
2017-12-26T01:41:20.526Z,3.60
2017-12-26T01:46:23.088Z,3.60
2017-12-26T01:51:24.623Z,3.70
2017-12-26T01:56:26.912Z,3.60
2017-12-26T02:01:28.426Z,3.60
2017-12-26T02:06:30.027Z,3.50
2017-12-26T02:11:32.280Z,3.40
2017-12-26T02:16:34.645Z,3.30
2017-12-26T02:21:36.185Z,3.40
2017-12-26T02:26:38.458Z,3.10
2017-12-26T02:31:40.738Z,3.00
2017-12-26T02:36:42.974Z,3.00
2017-12-26T02:41:51.610Z,2.90
2017-12-26T02:46:53.885Z,2.90
2017-12-26T02:51:55.421Z,2.80
2017-12-26T02:56:57.696Z,2.70
2017-12-26T03:01:59.990Z,2.60
2017-12-26T03:07:02.301Z,2.60
2017-12-26T03:12:03.789Z,2.50
2017-12-26T03:17:05.305Z,2.50
2017-12-26T03:22:07.540Z,2.50
2017-12-26T03:27:09.058Z,2.40
2017-12-26T03:32:11.327Z,2.50
2017-12-26T03:37:12.828Z,2.40
2017-12-26T03:42:14.355Z,2.50
2017-12-26T03:47:15.906Z,2.40
2017-12-26T03:52:17.421Z,2.30
2017-12-26T03:57:19.083Z,2.30
2017-12-26T04:02:21.520Z,2.20
2017-12-26T04:07:23.014Z,2.20
2017-12-26T04:12:24.500Z,2.30
2017-12-26T04:17:26.892Z,2.30
2017-12-26T04:22:29.144Z,2.30
2017-12-26T04:27:30.620Z,2.30
2017-12-26T04:32:32.186Z,2.40
2017-12-26T04:37:33.712Z,2.30
2017-12-26T04:42:35.231Z,2.30
2017-12-26T04:47:36.745Z,2.10
2017-12-26T04:52:38.302Z,2.00
2017-12-26T04:57:39.877Z,1.80
2017-12-26T05:02:41.369Z,1.60
2017-12-26T05:07:42.834Z,1.50
2017-12-26T05:12:44.385Z,1.40
2017-12-26T05:17:45.904Z,1.30
2017-12-26T05:22:48.153Z,1.40
2017-12-26T05:27:56.576Z,1.30
2017-12-26T05:32:58.091Z,1.30
2017-12-26T05:38:00.345Z,1.20
2017-12-26T05:43:01.892Z,1.10
2017-12-26T05:48:03.428Z,1.10
2017-12-26T05:53:04.929Z,1.20
2017-12-26T05:58:06.478Z,1.20
2017-12-26T06:03:08.028Z,1.30
2017-12-26T06:08:09.600Z,1.20
2017-12-26T06:13:11.135Z,1.20
2017-12-26T06:18:12.712Z,1.30
2017-12-26T06:23:15.012Z,1.30
2017-12-26T06:28:17.267Z,1.10
2017-12-26T06:33:18.803Z,1.10
2017-12-26T06:38:20.318Z,1.10
2017-12-26T06:43:22.562Z,1.30
2017-12-26T06:48:24.145Z,1.20
2017-12-26T06:53:25.672Z,1.50
2017-12-26T06:58:27.173Z,1.70
2017-12-26T07:03:28.704Z,1.70
2017-12-26T07:08:30.278Z,1.80
2017-12-26T07:13:31.813Z,1.80
2017-12-26T07:18:34.070Z,1.70
2017-12-26T07:23:35.583Z,1.70
2017-12-26T07:28:37.073Z,1.60
2017-12-26T07:33:38.596Z,1.60
2017-12-26T07:38:40.936Z,1.50
2017-12-26T07:43:42.459Z,1.40
2017-12-26T07:48:44.723Z,1.70
2017-12-26T07:53:46.249Z,1.70
2017-12-26T07:58:47.743Z,2.10
2017-12-26T08:03:49.337Z,2.70
2017-12-26T08:08:51.559Z,3.70
2017-12-26T08:13:53.107Z,3.70
2017-12-26T08:18:54.666Z,3.80
2017-12-26T08:23:57.042Z,3.70
2017-12-26T08:28:59.302Z,3.70
2017-12-26T08:34:00.820Z,3.60
2017-12-26T08:39:02.317Z,3.60
2017-12-26T08:44:03.788Z,3.60
2017-12-26T08:49:05.374Z,3.60
2017-12-26T08:54:06.952Z,3.60
2017-12-26T08:59:08.500Z,3.60
2017-12-26T09:04:10.046Z,3.60
2017-12-26T09:09:11.590Z,3.70
2017-12-26T09:14:13.157Z,3.90
2017-12-26T09:19:14.670Z,3.90
2017-12-26T09:24:16.221Z,4.10
2017-12-26T09:29:17.778Z,4.00
2017-12-26T09:34:19.290Z,4.10
2017-12-26T09:39:20.789Z,4.20
2017-12-26T09:44:22.468Z,4.30
2017-12-26T09:49:24.030Z,4.30
2017-12-26T09:54:25.547Z,4.40
2017-12-26T09:59:27.116Z,4.50
2017-12-26T10:04:28.941Z,4.60
2017-12-26T10:09:30.416Z,4.70
2017-12-26T10:14:31.917Z,4.80
2017-12-26T10:19:33.426Z,4.90
2017-12-26T10:24:35.687Z,5.20
2017-12-26T10:29:37.862Z,5.10
2017-12-26T10:34:39.405Z,5.40
2017-12-26T10:39:40.926Z,5.50
2017-12-26T10:44:43.266Z,5.60
2017-12-26T10:49:44.781Z,5.60
2017-12-26T10:54:46.379Z,5.90
2017-12-26T10:59:47.909Z,6.00
2017-12-26T11:04:50.209Z,6.00
2017-12-26T11:09:51.751Z,6.00
2017-12-26T11:14:53.295Z,6.00
2017-12-26T11:19:54.829Z,6.30
2017-12-26T11:24:56.383Z,6.70
2017-12-26T11:29:57.966Z,7.30
2017-12-26T11:34:59.547Z,7.70
2017-12-26T11:40:01.103Z,8.00
2017-12-26T11:45:02.696Z,8.10
2017-12-26T11:50:04.235Z,8.10
2017-12-26T11:55:05.734Z,7.80
2017-12-26T12:00:07.289Z,7.30
2017-12-26T12:05:08.831Z,7.10
2017-12-26T12:10:10.325Z,7.00
2017-12-26T12:15:11.911Z,7.10
2017-12-26T12:20:13.431Z,7.10
2017-12-26T12:25:15.781Z,7.30
2017-12-26T12:30:17.425Z,7.50
2017-12-26T12:35:18.891Z,7.60
2017-12-26T12:40:20.516Z,7.70
2017-12-26T12:45:22.752Z,7.90
2017-12-26T12:50:24.242Z,7.80
2017-12-26T12:55:25.762Z,8.00
2017-12-26T13:00:27.255Z,8.20
2017-12-26T13:05:28.834Z,8.10
2017-12-26T13:10:30.431Z,8.10
2017-12-26T13:15:32.706Z,7.70
2017-12-26T13:20:34.970Z,7.70
2017-12-26T13:25:36.504Z,7.70
2017-12-26T13:30:37.983Z,7.80
2017-12-26T13:35:39.698Z,8.20
2017-12-26T13:40:41.974Z,7.90
2017-12-26T13:45:43.446Z,7.90
2017-12-26T13:50:45.722Z,7.70
2017-12-26T13:55:47.254Z,7.70
2017-12-26T14:00:48.754Z,7.60
2017-12-26T14:05:50.270Z,7.60
2017-12-26T14:10:51.730Z,7.50
2017-12-26T14:15:53.296Z,7.60
2017-12-26T14:20:54.969Z,7.70
2017-12-26T14:25:56.607Z,7.50
2017-12-26T14:30:59.081Z,7.20
2017-12-26T14:36:00.654Z,7.10
2017-12-26T14:41:02.212Z,7.10
2017-12-26T14:46:03.843Z,7.00
2017-12-26T14:51:06.022Z,7.00
2017-12-26T14:56:07.598Z,6.90
2017-12-26T15:01:09.158Z,6.90
2017-12-26T15:06:10.716Z,6.80
2017-12-26T15:11:12.298Z,6.80
2017-12-26T15:16:13.890Z,6.80
2017-12-26T15:21:15.434Z,6.80
2017-12-26T15:26:16.994Z,6.80
2017-12-26T15:31:18.578Z,6.80
2017-12-26T15:36:20.120Z,6.80
2017-12-26T15:41:21.713Z,6.80
2017-12-26T15:46:23.274Z,6.80
2017-12-26T15:51:24.906Z,6.80
2017-12-26T15:56:27.213Z,6.80
2017-12-26T16:01:28.764Z,6.70
2017-12-26T16:06:31.088Z,6.70
2017-12-26T16:11:32.809Z,6.70
2017-12-26T16:16:35.150Z,6.80
2017-12-26T16:21:36.681Z,6.70
2017-12-26T16:26:38.260Z,6.70
2017-12-26T16:31:39.838Z,6.60
2017-12-26T16:36:41.406Z,6.70
2017-12-26T16:41:43.007Z,6.70
2017-12-26T16:46:44.613Z,6.60
2017-12-26T16:51:46.818Z,6.50
2017-12-26T16:56:48.548Z,6.40
2017-12-26T17:01:50.070Z,6.50
2017-12-26T17:06:51.614Z,6.50
2017-12-26T17:11:53.918Z,6.40
2017-12-26T17:16:55.522Z,6.40
2017-12-26T17:21:57.078Z,6.50
2017-12-26T17:26:58.568Z,6.40
2017-12-26T17:32:00.123Z,6.40
2017-12-26T17:37:01.703Z,6.40
2017-12-26T17:42:03.272Z,6.30
2017-12-26T17:47:04.793Z,6.20
2017-12-26T17:52:06.349Z,6.20
2017-12-26T17:57:07.938Z,6.10
2017-12-26T18:02:09.534Z,6.20
2017-12-26T18:07:11.104Z,6.20
2017-12-26T18:12:12.653Z,6.20
2017-12-26T18:17:14.217Z,6.20
2017-12-26T18:22:15.721Z,6.30
2017-12-26T18:27:17.451Z,6.30
2017-12-26T18:32:19.020Z,6.30
2017-12-26T18:37:20.596Z,6.30
2017-12-26T18:42:22.178Z,6.40
2017-12-26T18:47:23.768Z,6.40
2017-12-26T18:52:25.298Z,6.30
2017-12-26T18:57:26.891Z,6.30
2017-12-26T19:02:28.410Z,6.30
2017-12-26T19:07:29.917Z,6.30
2017-12-26T19:12:31.509Z,6.30
2017-12-26T19:17:33.152Z,6.30
2017-12-26T19:22:34.691Z,6.30
2017-12-26T19:27:36.283Z,6.20
2017-12-26T19:32:37.777Z,6.20
2017-12-26T19:37:39.678Z,6.20
2017-12-26T19:42:41.950Z,6.00
2017-12-26T19:47:44.255Z,6.00
2017-12-26T19:52:46.561Z,6.00
2017-12-26T19:57:48.136Z,5.90
2017-12-26T20:02:49.654Z,5.90
2017-12-26T20:07:51.240Z,5.80
2017-12-26T20:12:53.526Z,5.40
2017-12-26T20:17:55.794Z,5.40
2017-12-26T20:22:57.352Z,5.30
2017-12-26T20:28:04.901Z,5.30
2017-12-26T20:33:06.368Z,5.20
2017-12-26T20:38:07.964Z,5.20
2017-12-26T20:43:09.499Z,5.10
2017-12-26T20:48:11.076Z,5.00
2017-12-26T20:53:12.698Z,4.90
2017-12-26T20:58:14.243Z,4.90
2017-12-26T21:03:15.804Z,4.90
2017-12-26T21:08:17.328Z,4.90
2017-12-26T21:13:19.632Z,4.90
2017-12-26T21:18:21.168Z,4.80
2017-12-26T21:23:22.702Z,4.80
2017-12-26T21:28:24.420Z,4.80
2017-12-26T21:33:26.778Z,4.70
2017-12-26T21:38:28.396Z,4.60
2017-12-26T21:43:30.097Z,4.70
2017-12-26T21:48:31.594Z,4.70
2017-12-26T21:53:33.142Z,4.60
2017-12-26T21:58:34.700Z,4.60
2017-12-26T22:03:36.275Z,4.60
2017-12-26T22:08:37.804Z,4.50
2017-12-26T22:13:40.061Z,4.40
2017-12-26T22:18:42.365Z,4.40
2017-12-26T22:23:44.023Z,4.40
2017-12-26T22:28:46.315Z,4.50
2017-12-26T22:33:47.875Z,4.40
2017-12-26T22:38:50.120Z,4.40
2017-12-26T22:43:51.671Z,4.40
2017-12-26T22:48:53.206Z,4.40
2017-12-26T22:53:54.733Z,4.40
2017-12-26T22:58:56.271Z,4.40
2017-12-26T23:03:57.822Z,4.30
2017-12-26T23:08:59.410Z,4.30
2017-12-26T23:14:06.940Z,4.20
2017-12-26T23:19:08.443Z,4.10
2017-12-26T23:40:23.469Z,4.00
2017-12-26T23:45:31.146Z,4.00
2017-12-26T23:50:38.861Z,4.10
2017-12-26T23:55:46.673Z,4.20
